NCAR-RAP Real-Time Weather Data

Output produced by METARs form (01 October 2022  04:29 UTC)
found at http://weather.rap.ucar.edu/surface/
 
VYYY 010400Z 19004KT 7000 BKN016 FEW020CB BKN100 28/25 Q1006
VYYY 010330Z 22005KT 7000 BKN016 FEW020CB BKN100 28/25 Q1006
VYYY 010300Z 23005KT 6000 BKN016 FEW020CB BKN100 27/24 Q1006
VYYY 010230Z 21003KT 6000 BKN016 FEW020CB BKN100 27/24 Q1006
VYYY 010200Z 21006KT 6000 BKN016 FEW020CB BKN100 26/25 Q1006
VYYY 010130Z 22004KT 6000 BKN016 FEW020CB BKN100 26/25 Q1005
VYYY 010100Z 21003KT 6000 BKN016 FEW020CB BKN100 25/23 Q1005
VYYY 010030Z 23003KT 6000 BKN016 FEW020CB BKN100 25/23 Q1005
VYYY 010000Z 22004KT 6000 BKN016 FEW020CB BKN100 25/23 Q1004
VYYY 302330Z 26004KT 6000 BKN016 FEW020CB BKN100 26/25 Q1004
VYYY 302300Z 25004KT 6000 BKN016 FEW020CB BKN100 26/25 Q1003
VYYY 302230Z 26004KT 6000 BKN016 FEW020CB BKN100 26/25 Q1003
VYYY 302200Z 23004KT 6000 BKN016 FEW020CB BKN100 26/25 Q1003
VYYY 302130Z 22004KT 7000 BKN016 FEW020CB BKN100 26/25 Q1003
VYYY 302100Z 20004KT 7000 BKN016 FEW020CB BKN100 26/25 Q1003
VYYY 302030Z 24003KT 7000 BKN016 FEW020CB BKN100 26/25 Q1004
VYYY 302000Z 23003KT 7000 BKN016 FEW020CB BKN100 26/25 Q1004
VYYY 301930Z 24004KT 7000 BKN016 FEW020CB BKN100 26/25 Q1004
VYYY 301900Z 25004KT 7000 BKN016 FEW020CB BKN100 26/25 Q1004
VYYY 301830Z 19004KT 7000 BKN016 FEW020CB BKN100 26/25 Q1004
VYYY 301730Z 21004KT 7000 BKN016 FEW020CB BKN100 26/25 Q1005
VYYY 301700Z 20004KT 7000 BKN016 FEW020CB BKN100 26/25 Q1005
VYYY 301630Z 22004KT 7000 BKN016 FEW020CB BKN100 26/25 Q1005